Time;durP1;ratioP1;P1;durP2;ratioP2;P2;SDS_P1;SDS_P2;PMS_P1;PMS_P2;Temp;Humidity;BMP_temperature;BMP_pressure;BME280_temperature;BME280_humidity;BME280_pressure;Samples;Min_cycle;Max_cycle;Signal;HPM_P1;HPM_P2
2021/08/17 00:00:49;;;;;;;4.05;2.88;;;;;;;21.82;37.64;94511.69;10498673;28;20048;-95
2021/08/17 00:05:51;;;;;;;5.95;3.35;;;;;;;21.93;37.71;94512.75;10456888;28;20025;-95
2021/08/17 00:10:52;;;;;;;4.55;3.38;;;;;;;21.93;37.75;94520.97;10457010;28;20021;-94
2021/08/17 00:15:54;;;;;;;5.05;2.70;;;;;;;21.97;37.94;94516.38;10456550;28;20163;-95
2021/08/17 00:20:56;;;;;;;4.22;2.85;;;;;;;21.92;38.36;94516.66;10455702;28;20041;-91
2021/08/17 00:25:56;;;;;;;8.10;3.40;;;;;;;21.93;38.43;94515.47;10453257;28;20025;-89
2021/08/17 00:30:56;;;;;;;4.90;3.13;;;;;;;22.00;38.55;94503.94;10453213;28;20268;-90
2021/08/17 00:35:57;;;;;;;7.18;2.80;;;;;;;22.04;38.56;94504.03;10453198;28;20491;-89
2021/08/17 00:40:57;;;;;;;5.20;2.70;;;;;;;22.08;38.73;94511.19;10456297;28;20120;-89
2021/08/17 00:45:58;;;;;;;5.07;2.95;;;;;;;22.11;39.07;94505.00;10452941;28;20056;-89
2021/08/17 00:50:58;;;;;;;3.60;2.75;;;;;;;22.12;39.20;94505.81;10451480;28;20388;-89
2021/08/17 00:56:00;;;;;;;6.10;3.37;;;;;;;22.12;39.33;94505.81;10452393;28;20017;-89
2021/08/17 01:01:02;;;;;;;3.75;2.58;;;;;;;22.15;39.34;94505.09;10453014;28;20312;-89
2021/08/17 01:06:03;;;;;;;11.65;3.50;;;;;;;22.10;39.53;94494.41;10453947;28;20047;-88
2021/08/17 01:11:04;;;;;;;6.82;2.80;;;;;;;22.07;39.77;94492.38;10454301;28;20027;-87
2021/08/17 01:16:05;;;;;;;5.72;3.33;;;;;;;21.96;40.43;94492.91;10452162;28;20490;-88
2021/08/17 01:21:08;;;;;;;4.00;3.15;;;;;;;21.95;40.66;94490.50;10453808;28;20028;-95
2021/08/17 01:26:08;;;;;;;6.30;2.97;;;;;;;21.90;41.18;94493.53;10477830;28;20032;-94
2021/08/17 01:31:09;;;;;;;7.97;3.20;;;;;;;21.76;41.97;94491.22;10471042;28;20395;-94
2021/08/17 01:36:09;;;;;;;6.55;3.10;;;;;;;21.61;42.54;94488.06;10463654;28;20045;-93
2021/08/17 01:41:10;;;;;;;7.75;3.88;;;;;;;21.45;43.03;94498.16;10464527;28;20048;-94
2021/08/17 01:46:12;;;;;;;6.28;3.15;;;;;;;21.36;43.59;94498.28;10467953;28;20059;-94
2021/08/17 01:51:12;;;;;;;10.13;3.72;;;;;;;21.29;43.98;94493.44;10496490;28;20064;-94
2021/08/17 01:56:15;;;;;;;5.07;3.55;;;;;;;21.26;44.50;94502.31;10474088;28;20098;-95
2021/08/17 02:01:16;;;;;;;5.82;3.88;;;;;;;21.05;45.44;94488.84;10463644;28;20484;-94
2021/08/17 02:06:16;;;;;;;4.43;3.33;;;;;;;21.06;45.59;94495.13;10463133;28;20064;-94
2021/08/17 02:11:18;;;;;;;5.97;3.70;;;;;;;20.96;46.88;94494.44;10461792;28;20020;-94
2021/08/17 02:16:18;;;;;;;7.07;2.85;;;;;;;20.98;47.90;94497.63;10460890;28;20274;-94
2021/08/17 02:21:19;;;;;;;9.32;3.63;;;;;;;20.94;47.79;94490.47;10459864;28;20522;-94
2021/08/17 02:26:19;;;;;;;5.10;3.37;;;;;;;20.82;48.98;94494.81;10459906;28;20021;-94
2021/08/17 02:31:19;;;;;;;5.20;3.50;;;;;;;20.74;48.30;94494.97;10460270;28;20322;-93
2021/08/17 02:36:20;;;;;;;8.13;3.40;;;;;;;20.66;50.04;94499.38;10460760;28;20289;-94
2021/08/17 02:41:20;;;;;;;6.18;3.75;;;;;;;20.60;51.37;94495.28;10458838;28;20037;-94
2021/08/17 02:46:21;;;;;;;4.32;3.33;;;;;;;20.60;51.28;94500.75;10460037;28;20025;-94
2021/08/17 02:51:21;;;;;;;14.43;3.57;;;;;;;20.46;51.81;94488.22;10458698;28;20095;-93
2021/08/17 02:56:22;;;;;;;4.90;3.75;;;;;;;20.39;53.05;94498.94;10458420;28;20506;-94
2021/08/17 03:01:22;;;;;;;16.33;3.93;;;;;;;20.40;53.74;94494.25;10453844;28;20017;-94
2021/08/17 03:06:22;;;;;;;9.60;3.57;;;;;;;20.34;52.47;94492.91;10436108;28;20025;-92
2021/08/17 03:11:25;;;;;;;5.53;3.45;;;;;;;20.15;53.19;94491.53;10459049;28;20557;-96
2021/08/17 03:16:26;;;;;;;8.48;3.78;;;;;;;20.15;53.63;94488.81;10458446;28;20028;-93
2021/08/17 03:21:27;;;;;;;5.05;4.03;;;;;;;20.07;55.70;94495.16;10458266;28;20061;-93
2021/08/17 03:26:27;;;;;;;5.43;4.10;;;;;;;19.86;56.49;94501.50;10458342;28;20040;-94
2021/08/17 03:31:28;;;;;;;11.05;4.22;;;;;;;19.73;58.31;94502.56;10457985;28;20021;-94
2021/08/17 03:36:29;;;;;;;7.65;4.22;;;;;;;19.66;58.37;94503.13;10469700;28;20110;-94
2021/08/17 03:41:29;;;;;;;7.53;4.23;;;;;;;19.54;59.77;94506.59;10463968;28;20507;-95
2021/08/17 03:46:29;;;;;;;9.90;3.60;;;;;;;19.57;59.95;94499.69;10456991;28;20278;-94
2021/08/17 03:51:30;;;;;;;9.57;4.05;;;;;;;19.50;59.80;94508.41;10455819;28;20267;-95
2021/08/17 03:56:30;;;;;;;10.93;4.17;;;;;;;19.32;62.88;94506.97;10455985;28;20025;-94
2021/08/17 04:01:31;;;;;;;10.98;4.43;;;;;;;19.35;63.93;94498.13;10456635;28;20624;-94
2021/08/17 04:06:31;;;;;;;6.57;4.40;;;;;;;19.36;64.73;94494.28;10457351;28;20471;-95
2021/08/17 04:11:31;;;;;;;13.20;4.63;;;;;;;19.33;65.69;94501.19;10457192;28;20319;-94
2021/08/17 04:16:32;;;;;;;16.98;4.70;;;;;;;19.31;67.92;94503.44;10457833;28;20287;-93
2021/08/17 04:21:32;;;;;;;9.20;4.60;;;;;;;19.20;69.57;94503.09;10448349;28;20447;-93
2021/08/17 04:26:33;;;;;;;6.95;5.00;;;;;;;19.01;72.33;94500.81;10423258;28;20563;-93
2021/08/17 04:31:33;;;;;;;16.83;6.13;;;;;;;19.23;66.68;94498.91;10457055;28;20031;-95
2021/08/17 04:36:34;;;;;;;7.68;4.82;;;;;;;19.29;66.59;94495.59;10456282;28;20833;-92
2021/08/17 04:41:34;;;;;;;17.80;6.40;;;;;;;19.48;66.24;94497.06;10416811;28;20116;-95
2021/08/17 04:46:35;;;;;;;5.82;4.45;;;;;;;19.60;65.17;94494.34;10415334;28;20865;-96
2021/08/17 04:51:35;;;;;;;12.10;5.30;;;;;;;19.73;64.78;94503.38;10418430;28;20017;-94
2021/08/17 04:56:36;;;;;;;10.75;5.75;;;;;;;19.89;65.46;94511.72;10415509;28;20647;-94
2021/08/17 05:01:36;;;;;;;9.25;5.55;;;;;;;19.95;63.99;94512.31;10417186;28;20022;-95
2021/08/17 05:06:37;;;;;;;9.20;5.75;;;;;;;20.28;62.35;94501.31;10426523;28;20031;-94
2021/08/17 05:11:37;;;;;;;11.95;6.35;;;;;;;20.54;62.46;94502.91;10421838;28;20476;-89
2021/08/17 05:16:38;;;;;;;16.08;5.68;;;;;;;21.08;58.77;94499.06;10420568;28;20578;-89
2021/08/17 05:21:38;;;;;;;13.13;6.13;;;;;;;21.83;53.92;94505.84;10418645;28;20489;-89
2021/08/17 05:26:38;;;;;;;18.43;5.87;;;;;;;22.75;51.08;94501.47;10419683;28;20359;-91
2021/08/17 05:31:39;;;;;;;20.00;6.37;;;;;;;23.62;46.43;94496.63;10421831;28;20079;-88
2021/08/17 05:36:39;;;;;;;14.83;5.27;;;;;;;24.50;44.80;94499.75;10428845;28;20429;-91
2021/08/17 05:41:40;;;;;;;11.07;4.50;;;;;;;25.35;41.82;94498.63;10419337;28;20033;-90
2021/08/17 05:46:40;;;;;;;19.10;5.30;;;;;;;25.72;42.06;94493.19;10427003;28;20045;-89
2021/08/17 05:51:40;;;;;;;14.47;4.90;;;;;;;26.59;41.21;94507.78;10417397;28;20268;-90
2021/08/17 05:56:41;;;;;;;13.20;4.90;;;;;;;27.47;39.51;94501.66;10418157;28;20087;-90
2021/08/17 06:01:41;;;;;;;8.87;3.97;;;;;;;27.69;37.76;94497.81;10417124;28;20116;-90
2021/08/17 06:06:42;;;;;;;14.03;4.77;;;;;;;28.43;36.42;94495.59;10422252;28;20018;-95
2021/08/17 06:11:43;;;;;;;15.40;4.90;;;;;;;28.89;34.89;94498.78;10418576;28;20355;-90
2021/08/17 06:16:44;;;;;;;12.25;4.65;;;;;;;29.65;34.05;94491.03;10419196;28;20029;-91
2021/08/17 06:21:45;;;;;;;11.48;4.70;;;;;;;30.30;33.01;94490.72;10418621;28;20028;-91
2021/08/17 06:26:46;;;;;;;12.18;4.80;;;;;;;30.99;31.66;94483.44;10443456;28;20043;-90
2021/08/17 06:31:46;;;;;;;11.02;4.22;;;;;;;31.55;30.64;94481.63;10446930;28;20049;-91
2021/08/17 06:36:47;;;;;;;14.93;4.53;;;;;;;31.97;30.29;94480.34;10416083;28;20489;-89
2021/08/17 06:41:49;;;;;;;9.40;4.57;;;;;;;32.37;28.70;94477.78;10416278;28;20801;-90
2021/08/17 06:46:49;;;;;;;11.35;3.90;;;;;;;32.25;29.35;94480.34;10417120;28;20026;-89
2021/08/17 06:51:50;;;;;;;12.23;4.33;;;;;;;32.46;29.49;94468.91;10426002;28;20088;-91
2021/08/17 06:56:50;;;;;;;9.93;4.00;;;;;;;33.31;28.12;94462.31;10419662;28;20024;-91
2021/08/17 07:01:51;;;;;;;12.70;4.43;;;;;;;33.01;27.95;94458.44;10415802;28;20017;-92
2021/08/17 07:06:51;;;;;;;14.43;3.47;;;;;;;33.09;27.73;94463.88;10414823;28;20028;-89
2021/08/17 07:11:51;;;;;;;6.50;4.00;;;;;;;33.76;26.99;94457.41;10414614;28;20021;-89
2021/08/17 07:16:52;;;;;;;10.23;3.55;;;;;;;34.10;26.69;94454.28;10418951;28;20022;-90
2021/08/17 07:21:53;;;;;;;10.48;4.05;;;;;;;34.81;26.00;94453.06;10415664;28;20033;-90
2021/08/17 07:26:54;;;;;;;12.00;3.67;;;;;;;33.92;27.05;94448.34;10415490;28;20053;-90
2021/08/17 07:31:54;;;;;;;7.68;3.15;;;;;;;34.04;27.24;94444.88;10414176;28;20063;-90
2021/08/17 07:36:55;;;;;;;7.97;3.73;;;;;;;35.61;25.13;94446.91;10415615;28;20053;-90
2021/08/17 07:41:55;;;;;;;12.33;4.10;;;;;;;36.20;24.85;94447.56;10413349;28;20778;-90
2021/08/17 07:46:57;;;;;;;11.38;3.22;;;;;;;37.27;24.26;94442.50;10414824;28;20099;-90
2021/08/17 07:51:59;;;;;;;11.52;3.58;;;;;;;38.26;22.76;94446.84;10415588;28;20087;-90
2021/08/17 07:56:59;;;;;;;9.00;3.47;;;;;;;38.62;22.42;94444.63;10419071;28;20025;-90
2021/08/17 08:01:59;;;;;;;8.37;3.40;;;;;;;38.41;22.63;94432.25;10418606;28;20100;-91
2021/08/17 08:07:00;;;;;;;8.33;3.40;;;;;;;38.52;22.23;94435.38;10413221;28;20028;-91
2021/08/17 08:12:00;;;;;;;6.90;3.27;;;;;;;38.54;21.77;94435.69;10412341;28;20105;-89
2021/08/17 08:17:01;;;;;;;13.50;3.27;;;;;;;38.97;22.12;94431.09;10412219;28;20045;-90
2021/08/17 08:22:02;;;;;;;5.60;3.10;;;;;;;39.13;21.68;94432.06;10415106;28;20124;-95
2021/08/17 08:27:03;;;;;;;7.65;3.25;;;;;;;40.51;20.63;94424.63;10415541;28;20295;-93
2021/08/17 08:32:04;;;;;;;9.77;3.35;;;;;;;40.18;21.08;94411.31;10415252;28;20041;-96
2021/08/17 08:37:05;;;;;;;10.20;3.47;;;;;;;40.44;21.19;94419.31;10414993;28;20084;-95
2021/08/17 08:42:07;;;;;;;7.25;2.97;;;;;;;41.96;18.55;94418.81;10414538;28;20032;-96
2021/08/17 08:47:07;;;;;;;5.90;2.60;;;;;;;41.99;18.62;94406.53;10415754;28;20014;-95
2021/08/17 08:52:08;;;;;;;6.97;2.75;;;;;;;41.49;19.45;94401.56;10416186;28;20017;-95
2021/08/17 08:57:09;;;;;;;8.50;3.10;;;;;;;42.54;18.69;94390.16;10415667;28;20031;-96
2021/08/17 09:02:17;;;;;;;5.22;2.70;;;;;;;43.14;18.18;94384.28;10417614;28;20022;-94
2021/08/17 09:07:39;;;;;;;8.65;2.85;;;;;;;43.34;18.37;94372.91;10429542;28;20108;-95
2021/08/17 09:12:59;;;;;;;4.78;2.70;;;;;;;42.68;18.56;94368.81;10429325;28;20018;-95
2021/08/17 09:18:05;;;;;;;18.13;10.70;;;;;;;43.00;18.83;94371.75;10422039;28;20130;-96
2021/08/17 09:23:30;;;;;;;7.82;3.00;;;;;;;42.11;19.18;94361.53;10411433;28;20030;-90
2021/08/17 09:28:36;;;;;;;11.23;3.03;;;;;;;44.14;17.83;94356.66;10412711;28;20100;-89
2021/08/17 09:33:41;;;;;;;6.53;2.35;;;;;;;44.13;17.40;94349.47;10431653;28;20064;-90
2021/08/17 09:38:42;;;;;;;4.35;2.78;;;;;;;44.35;17.74;94349.63;10412109;28;20476;-89
2021/08/17 09:44:06;;;;;;;7.15;2.75;;;;;;;44.42;17.39;94341.94;10411230;28;20124;-90
2021/08/17 09:49:32;;;;;;;8.68;2.80;;;;;;;43.95;18.19;94331.56;10415584;28;20091;-89
2021/08/17 09:54:37;;;;;;;9.00;2.28;;;;;;;45.57;17.34;94345.47;10415870;28;20036;-90
2021/08/17 09:59:40;;;;;;;9.52;2.95;;;;;;;46.40;17.05;94333.84;10418887;28;20032;-91
2021/08/17 10:04:41;;;;;;;4.20;2.72;;;;;;;46.79;16.67;94332.19;10418292;28;20464;-89
2021/08/17 10:09:42;;;;;;;7.97;2.58;;;;;;;47.74;15.77;94327.25;10420273;28;20112;-89
2021/08/17 10:14:43;;;;;;;7.65;2.83;;;;;;;48.05;15.33;94323.13;10420046;28;20121;-95
2021/08/17 10:19:45;;;;;;;6.95;2.78;;;;;;;47.96;15.29;94314.91;10420573;28;20072;-94
2021/08/17 10:24:48;;;;;;;3.53;2.55;;;;;;;47.15;16.40;94312.38;10419908;28;20115;-95
2021/08/17 10:29:56;;;;;;;4.18;2.72;;;;;;;47.12;15.96;94310.59;10419518;28;20407;-95
2021/08/17 10:34:57;;;;;;;5.85;2.83;;;;;;;47.51;15.71;94304.66;10419730;28;20053;-95
2021/08/17 10:39:57;;;;;;;3.53;2.53;;;;;;;47.71;15.59;94297.75;10428930;28;20065;-95
2021/08/17 10:45:25;;;;;;;4.57;3.23;;;;;;;47.71;16.00;94292.06;10420150;28;20045;-95
2021/08/17 10:50:31;;;;;;;7.78;2.45;;;;;;;48.65;15.20;94292.22;10419553;28;20655;-95
2021/08/17 10:55:36;;;;;;;7.32;2.53;;;;;;;48.45;14.97;94282.06;10422225;28;20120;-94
2021/08/17 11:00:39;;;;;;;5.43;2.88;;;;;;;47.57;15.35;94276.13;10417126;28;20029;-90
2021/08/17 11:05:49;;;;;;;3.03;2.67;;;;;;;46.33;16.07;94261.28;10415498;28;20036;-90
2021/08/17 11:10:50;;;;;;;5.65;2.95;;;;;;;45.97;16.43;94249.72;10414584;28;20367;-91
2021/08/17 11:16:10;;;;;;;5.07;2.90;;;;;;;46.16;16.40;94246.31;10414641;28;20017;-89
2021/08/17 11:21:10;;;;;;;7.10;3.33;;;;;;;43.44;18.13;94242.63;10414041;28;20040;-89
2021/08/17 11:26:11;;;;;;;6.83;4.50;;;;;;;40.36;21.21;94243.50;10415504;28;20506;-89
2021/08/17 11:31:12;;;;;;;11.63;5.10;;;;;;;39.90;22.00;94239.75;10413360;28;20101;-90
2021/08/17 11:36:22;;;;;;;19.25;4.78;;;;;;;39.15;22.06;94244.09;10415445;28;20395;-89
2021/08/17 11:41:29;;;;;;;7.03;5.05;;;;;;;38.32;23.27;94230.91;10412411;28;20056;-89
2021/08/17 11:46:30;;;;;;;12.18;5.28;;;;;;;38.01;23.49;94223.34;10415444;28;20033;-89
2021/08/17 11:51:30;;;;;;;15.17;6.13;;;;;;;37.29;24.78;94226.22;10412175;28;20021;-91
2021/08/17 11:56:31;;;;;;;15.27;7.90;;;;;;;36.98;25.01;94220.59;10412490;28;20029;-90
2021/08/17 12:01:31;;;;;;;10.17;7.00;;;;;;;36.01;25.46;94208.78;10413035;28;20326;-91
2021/08/17 12:06:32;;;;;;;10.82;6.70;;;;;;;35.92;25.79;94211.53;10413988;28;20268;-89
2021/08/17 12:11:32;;;;;;;11.50;7.53;;;;;;;36.09;25.88;94217.75;10413212;28;20446;-90
2021/08/17 12:16:33;;;;;;;16.40;6.30;;;;;;;36.14;26.32;94197.56;10424164;28;20272;-94
2021/08/17 12:21:33;;;;;;;9.88;6.60;;;;;;;36.35;25.38;94198.06;10438254;28;20474;-94
2021/08/17 12:26:33;;;;;;;14.87;6.97;;;;;;;36.26;25.72;94184.78;10414328;28;20030;-95
2021/08/17 12:31:37;;;;;;;16.83;9.17;;;;;;;36.43;26.08;94182.59;10414195;28;20276;-94
2021/08/17 12:36:37;;;;;;;16.55;9.05;;;;;;;36.39;25.81;94176.34;10429147;28;20308;-95
2021/08/17 12:41:49;;;;;;;14.70;9.03;;;;;;;36.58;26.61;94169.63;10414561;28;20084;-95
2021/08/17 12:47:02;;;;;;;15.48;9.32;;;;;;;36.54;25.81;94157.78;10413269;28;20084;-95
2021/08/17 12:52:24;;;;;;;18.98;10.50;;;;;;;36.70;25.63;94140.00;10411286;28;20026;-89
2021/08/17 12:57:30;;;;;;;18.40;10.25;;;;;;;36.67;25.49;94146.50;10411147;28;20029;-89
2021/08/17 13:02:30;;;;;;;20.33;11.60;;;;;;;36.40;25.56;94138.72;10415628;28;20076;-89
2021/08/17 13:07:31;;;;;;;24.20;13.25;;;;;;;36.00;25.17;94130.94;10414824;28;20079;-95
2021/08/17 13:12:32;;;;;;;24.48;12.07;;;;;;;36.04;25.54;94109.22;10413659;28;20022;-94
2021/08/17 13:17:33;;;;;;;22.70;12.55;;;;;;;35.88;25.45;94113.00;10413942;28;20030;-96
2021/08/17 13:22:35;;;;;;;23.10;13.20;;;;;;;35.67;25.36;94104.09;10413852;28;20102;-94
2021/08/17 13:27:36;;;;;;;26.20;14.50;;;;;;;35.52;26.24;94103.78;10424000;28;20026;-95
2021/08/17 13:32:37;;;;;;;22.10;14.25;;;;;;;35.36;25.72;94104.75;10421741;28;20033;-95
2021/08/17 13:37:37;;;;;;;24.05;12.38;;;;;;;35.39;24.88;94108.63;10420834;28;20112;-93
2021/08/17 13:42:38;;;;;;;21.50;11.20;;;;;;;35.34;24.57;94100.81;10424192;28;20488;-95
2021/08/17 13:47:38;;;;;;;16.97;10.23;;;;;;;35.20;25.28;94104.84;10423492;28;20022;-94
2021/08/17 13:52:39;;;;;;;14.15;9.10;;;;;;;35.05;25.68;94096.94;10423103;28;20303;-94
2021/08/17 13:57:39;;;;;;;14.63;9.30;;;;;;;35.12;25.80;94107.06;10424635;28;20188;-95
2021/08/17 14:02:40;;;;;;;15.70;9.23;;;;;;;34.87;26.22;94099.50;10427665;28;20026;-91
2021/08/17 14:07:40;;;;;;;13.57;8.90;;;;;;;34.92;26.94;94102.50;10425196;28;20018;-94
2021/08/17 14:12:40;;;;;;;22.08;9.13;;;;;;;34.83;27.17;94096.84;10421170;28;20261;-94
2021/08/17 14:17:41;;;;;;;16.20;9.10;;;;;;;34.74;27.26;94103.03;10416639;28;20018;-89
2021/08/17 14:22:41;;;;;;;16.80;8.87;;;;;;;34.63;27.02;94104.59;10418190;28;20036;-90
2021/08/17 14:27:42;;;;;;;15.27;9.10;;;;;;;34.52;27.23;94097.31;10423580;28;20420;-90
2021/08/17 14:32:42;;;;;;;15.30;9.27;;;;;;;34.54;26.91;94102.50;10418562;28;20719;-94
2021/08/17 14:37:43;;;;;;;15.80;9.80;;;;;;;34.42;26.75;94103.25;10417171;28;20136;-91
2021/08/17 14:42:43;;;;;;;22.08;10.43;;;;;;;34.20;26.94;94101.84;10416458;28;20112;-91
2021/08/17 14:47:43;;;;;;;22.67;9.60;;;;;;;34.19;27.35;94105.84;10414709;28;20051;-90
2021/08/17 14:52:44;;;;;;;18.15;9.70;;;;;;;33.93;27.63;94095.84;10414665;28;20492;-91
2021/08/17 14:57:44;;;;;;;15.40;9.43;;;;;;;33.90;28.36;94092.69;10414476;28;20024;-91
2021/08/17 15:02:45;;;;;;;13.03;9.60;;;;;;;33.88;27.98;94084.00;10414160;28;20393;-89
2021/08/17 15:07:46;;;;;;;16.97;9.83;;;;;;;33.73;29.07;94091.94;10414741;28;21111;-90
2021/08/17 15:12:47;;;;;;;17.95;10.25;;;;;;;33.74;28.95;94078.78;10415453;28;20260;-90
2021/08/17 15:17:48;;;;;;;16.77;10.50;;;;;;;33.51;28.52;94083.38;10413609;28;20052;-90
2021/08/17 15:22:52;;;;;;;17.17;10.15;;;;;;;33.42;28.68;94088.78;10413527;28;20199;-90
2021/08/17 15:27:53;;;;;;;16.92;11.50;;;;;;;33.28;28.59;94083.59;10414916;28;20052;-94
2021/08/17 15:38:50;;;;;;;22.73;12.27;;;;;;;30.98;31.90;94084.22;10395332;28;20041;-89
2021/08/17 15:43:51;;;;;;;16.17;9.70;;;;;;;30.75;33.53;94082.97;10414073;28;20480;-94
2021/08/17 15:48:51;;;;;;;16.80;10.43;;;;;;;30.73;32.08;94081.81;10417759;28;20359;-95
2021/08/17 15:59:58;;;;;;;18.65;11.30;;;;;;;30.80;31.99;94085.28;10416230;28;20029;-96
2021/08/17 16:04:59;;;;;;;17.38;10.27;;;;;;;30.95;32.11;94079.50;10411987;28;20131;-89
2021/08/17 16:10:00;;;;;;;15.43;8.60;;;;;;;31.06;30.93;94084.91;10413330;28;20041;-90
2021/08/17 16:15:05;;;;;;;29.92;14.30;;;;;;;31.21;29.83;94080.69;10410968;28;20052;-90
2021/08/17 16:20:06;;;;;;;30.83;14.82;;;;;;;31.18;29.88;94079.53;10412197;28;20041;-90
2021/08/17 16:25:08;;;;;;;18.08;10.48;;;;;;;31.21;31.70;94086.22;10411404;28;20033;-90
2021/08/17 16:30:11;;;;;;;16.10;7.65;;;;;;;31.27;32.50;94080.97;10411167;28;20025;-90
2021/08/17 16:35:13;;;;;;;12.35;7.00;;;;;;;31.19;32.36;94067.22;10412470;28;20037;-90
2021/08/17 16:40:13;;;;;;;15.48;6.53;;;;;;;31.16;33.00;94079.19;10416220;28;20045;-90
2021/08/17 16:45:14;;;;;;;12.85;6.68;;;;;;;31.12;32.74;94078.44;10413311;28;20033;-89
2021/08/17 16:50:15;;;;;;;11.20;6.63;;;;;;;31.06;32.78;94084.91;10413115;28;20052;-88
2021/08/17 16:55:16;;;;;;;11.52;7.70;;;;;;;31.00;33.45;94084.56;10411204;28;20480;-89
2021/08/17 17:00:20;;;;;;;18.38;7.65;;;;;;;30.87;33.60;94089.13;10416783;28;20026;-89
2021/08/17 17:05:20;;;;;;;8.35;5.85;;;;;;;30.74;34.43;94086.97;10419160;28;20116;-89
2021/08/17 17:10:21;;;;;;;11.57;6.68;;;;;;;30.62;34.98;94091.09;10418597;28;20574;-89
2021/08/17 17:15:21;;;;;;;19.40;7.60;;;;;;;30.56;35.27;94108.59;10421053;28;20029;-93
2021/08/17 17:20:22;;;;;;;16.48;8.10;;;;;;;30.28;36.90;94105.00;10423200;28;20280;-93
2021/08/17 17:25:22;;;;;;;16.45;9.80;;;;;;;30.12;37.24;94108.38;10435115;28;20033;-93
2021/08/17 17:30:24;;;;;;;14.57;8.70;;;;;;;29.92;37.31;94116.50;10439933;28;20124;-94
2021/08/17 17:35:25;;;;;;;20.58;11.05;;;;;;;29.85;36.56;94133.22;10422982;28;20787;-95
2021/08/17 17:46:22;;;;;;;17.55;7.82;;;;;;;29.76;37.60;94176.00;10422579;28;20030;-95
2021/08/17 17:51:23;;;;;;;21.95;8.18;;;;;;;29.72;38.26;94171.72;10421735;28;20468;-95
2021/08/17 17:56:23;;;;;;;11.68;7.28;;;;;;;29.48;39.45;94193.69;10405594;28;20120;-95
2021/08/17 18:01:24;;;;;;;17.52;7.80;;;;;;;29.28;40.41;94187.94;10422006;28;20036;-94
2021/08/17 18:06:26;;;;;;;14.00;7.85;;;;;;;29.12;41.36;94211.34;10419737;28;20037;-94
2021/08/17 18:11:32;;;;;;;11.73;7.68;;;;;;;28.76;44.68;94249.47;10421249;28;20128;-94
2021/08/17 18:16:32;;;;;;;13.35;7.95;;;;;;;28.64;45.98;94283.91;10403878;28;20484;-94
2021/08/17 18:21:35;;;;;;;13.85;9.27;;;;;;;28.28;47.19;94315.16;10419895;28;20023;-95
2021/08/17 18:26:35;;;;;;;16.52;9.02;;;;;;;27.97;51.49;94312.00;10419069;28;20097;-94
2021/08/17 18:31:40;;;;;;;16.25;9.05;;;;;;;28.01;52.16;94323.09;10419171;28;20116;-93
2021/08/17 18:36:40;;;;;;;30.17;9.07;;;;;;;27.88;62.75;94327.41;10418810;28;20103;-93
2021/08/17 18:41:42;;;;;;;13.00;9.93;;;;;;;26.90;92.70;94354.00;10429325;28;20106;-94
2021/08/17 18:46:44;;;;;;;17.83;10.55;;;;;;;25.52;100.00;94395.47;10438389;28;20030;-92
2021/08/17 18:52:00;;;;;;;17.13;10.52;;;;;;;24.76;100.00;94421.25;10427696;28;20091;-94
2021/08/17 18:57:00;;;;;;;20.48;11.25;;;;;;;24.25;100.00;94425.19;10420708;28;20032;-94
2021/08/17 19:02:02;;;;;;;16.97;11.30;;;;;;;23.86;100.00;94404.13;10417382;28;20032;-95
2021/08/17 19:07:04;;;;;;;19.23;10.43;;;;;;;23.61;100.00;94426.47;10380492;23;20054;-72
2021/08/17 19:12:09;;;;;;;13.20;9.55;;;;;;;23.01;100.00;94419.44;10332758;28;20378;-72
2021/08/17 19:17:10;;;;;;;12.27;8.10;;;;;;;22.66;100.00;94405.75;10319318;28;20089;-72
2021/08/17 19:22:12;;;;;;;12.40;9.38;;;;;;;22.72;100.00;94392.56;10283901;28;20078;-72
2021/08/17 19:27:14;;;;;;;13.65;8.48;;;;;;;22.97;100.00;94407.59;10300634;28;20037;-72
2021/08/17 19:32:16;;;;;;;11.07;7.47;;;;;;;23.27;100.00;94409.75;10323695;28;20026;-72
2021/08/17 19:37:17;;;;;;;14.23;7.85;;;;;;;23.15;100.00;94412.66;10323382;28;20030;-72
2021/08/17 19:42:18;;;;;;;12.20;8.65;;;;;;;23.25;100.00;94434.03;10321090;28;20033;-72
2021/08/17 19:47:18;;;;;;;18.50;10.67;;;;;;;22.30;100.00;94452.28;10328947;28;20026;-71
2021/08/17 19:52:19;;;;;;;17.48;10.13;;;;;;;21.92;100.00;94463.84;10324735;28;20269;-71
2021/08/17 19:57:19;;;;;;;13.87;9.53;;;;;;;21.98;100.00;94468.72;10321307;28;20033;-71
2021/08/17 20:02:20;;;;;;;16.87;11.10;;;;;;;22.12;100.00;94464.75;10324713;28;20466;-71
2021/08/17 20:07:20;;;;;;;14.65;9.93;;;;;;;22.49;100.00;94456.25;10359981;28;20050;-71
2021/08/17 20:12:20;;;;;;;20.67;10.50;;;;;;;22.84;100.00;94456.28;10360431;28;20466;-71
2021/08/17 20:17:21;;;;;;;19.80;9.93;;;;;;;23.20;100.00;94458.97;10359876;28;20041;-72
2021/08/17 20:22:21;;;;;;;16.23;9.30;;;;;;;23.32;100.00;94471.75;10360072;28;20141;-72
2021/08/17 20:27:22;;;;;;;23.13;11.77;;;;;;;23.21;100.00;94468.78;10360329;28;20344;-71
2021/08/17 20:32:22;;;;;;;17.33;11.00;;;;;;;23.16;100.00;94480.03;10358426;28;20021;-71
2021/08/17 20:37:23;;;;;;;15.88;10.68;;;;;;;23.18;100.00;94494.19;10361497;28;20121;-71
2021/08/17 20:42:23;;;;;;;17.30;10.67;;;;;;;23.26;100.00;94512.38;10360446;28;20026;-71
2021/08/17 20:47:23;;;;;;;14.73;9.77;;;;;;;23.22;100.00;94533.44;10359409;28;20042;-71
2021/08/17 20:52:24;;;;;;;17.60;9.83;;;;;;;23.12;100.00;94544.97;10358978;28;20101;-71
2021/08/17 20:57:25;;;;;;;13.82;9.18;;;;;;;22.76;100.00;94500.28;10360263;28;20764;-71
2021/08/17 21:02:25;;;;;;;15.85;9.05;;;;;;;22.07;100.00;94487.69;10355233;28;20113;-71
2021/08/17 21:07:26;;;;;;;14.87;10.50;;;;;;;21.24;100.00;94515.56;10317047;28;20104;-71
2021/08/17 21:12:26;;;;;;;15.65;8.13;;;;;;;20.66;100.00;94532.13;10318995;28;20125;-71
2021/08/17 21:17:27;;;;;;;6.23;4.53;;;;;;;20.41;100.00;94513.00;10317640;28;20023;-72
2021/08/17 21:22:27;;;;;;;7.00;5.10;;;;;;;19.76;100.00;94480.09;10318164;28;20037;-72
2021/08/17 21:27:28;;;;;;;12.37;5.53;;;;;;;19.49;100.00;94474.09;10319071;28;20052;-71
2021/08/17 21:32:30;;;;;;;7.37;5.57;;;;;;;19.67;100.00;94485.63;10314199;28;20274;-71
2021/08/17 21:37:32;;;;;;;10.13;6.13;;;;;;;19.50;100.00;94483.88;10277962;28;20037;-72
2021/08/17 21:42:33;;;;;;;9.38;4.57;;;;;;;19.40;100.00;94517.81;10278059;28;20482;-71
2021/08/17 21:47:34;;;;;;;11.80;6.00;;;;;;;19.63;100.00;94539.22;10285681;28;20034;-72
2021/08/17 21:52:35;;;;;;;12.65;6.78;;;;;;;19.87;100.00;94527.66;10284577;28;20026;-72
2021/08/17 21:57:35;;;;;;;9.90;6.13;;;;;;;19.74;100.00;94504.94;10284454;28;20042;-72
2021/08/17 22:02:36;;;;;;;10.90;6.03;;;;;;;19.29;100.00;94511.97;10291541;28;20057;-71
2021/08/17 22:07:36;;;;;;;11.70;6.13;;;;;;;19.08;100.00;94503.81;10323783;28;20058;-71
2021/08/17 22:12:37;;;;;;;10.60;7.83;;;;;;;18.76;100.00;94546.13;10304102;28;20027;-71
2021/08/17 22:17:39;;;;;;;14.60;10.10;;;;;;;18.67;100.00;94553.53;10285189;28;20757;-71
2021/08/17 22:22:41;;;;;;;19.50;10.40;;;;;;;18.78;100.00;94555.56;10284241;28;20034;-71
2021/08/17 22:27:42;;;;;;;19.02;11.95;;;;;;;18.77;100.00;94539.56;10283871;28;20030;-72
2021/08/17 22:32:42;;;;;;;20.60;12.32;;;;;;;18.62;100.00;94549.09;10284055;28;20408;-71
2021/08/17 22:37:43;;;;;;;19.40;13.63;;;;;;;18.72;100.00;94534.31;10283673;28;20034;-71
2021/08/17 22:42:44;;;;;;;16.98;13.05;;;;;;;18.74;100.00;94537.50;10282835;28;20106;-71
2021/08/17 22:47:45;;;;;;;22.67;15.10;;;;;;;19.06;100.00;94546.13;10284258;28;20026;-71
2021/08/17 22:52:45;;;;;;;24.67;14.02;;;;;;;18.91;100.00;94539.34;10282430;28;20512;-71
2021/08/17 22:57:46;;;;;;;22.73;14.52;;;;;;;19.13;100.00;94544.47;10283715;28;20791;-71
2021/08/17 23:02:47;;;;;;;22.35;13.00;;;;;;;19.31;100.00;94538.88;10290056;28;20029;-71
2021/08/17 23:07:47;;;;;;;18.00;12.68;;;;;;;19.50;100.00;94543.84;10321410;28;20057;-71
2021/08/17 23:12:50;;;;;;;18.95;9.90;;;;;;;19.51;100.00;94534.53;10323388;28;20022;-71
2021/08/17 23:17:51;;;;;;;16.40;10.07;;;;;;;19.56;100.00;94530.81;10323641;28;20032;-71
2021/08/17 23:22:51;;;;;;;20.63;8.57;;;;;;;19.67;100.00;94525.72;10324025;28;20482;-72